createdAt,value
2022-11-12T00:01:21.324Z,87.80
2022-11-12T00:04:09.657Z,90.00
2022-11-12T00:06:57.681Z,88.90
2022-11-12T00:09:45.945Z,78.10
2022-11-12T00:12:33.853Z,82.80
2022-11-12T00:15:24.084Z,80.40
2022-11-12T00:18:12.111Z,75.70
2022-11-12T00:21:00.122Z,69.30
2022-11-12T00:23:47.975Z,61.00
2022-11-12T00:26:49.140Z,55.20
2022-11-12T00:29:36.931Z,56.40
2022-11-12T00:32:24.475Z,50.00
2022-11-12T00:35:14.018Z,48.10
2022-11-12T00:38:01.995Z,43.50
2022-11-12T00:40:50.032Z,36.80
2022-11-12T00:43:38.204Z,34.60
2022-11-12T00:46:32.431Z,31.90
2022-11-12T00:49:20.545Z,28.00
2022-11-12T00:52:08.375Z,26.10
2022-11-12T00:55:00.772Z,22.80
2022-11-12T00:57:48.348Z,27.70
2022-11-12T01:00:41.091Z,24.90
2022-11-12T01:03:29.159Z,26.40
2022-11-12T01:06:26.478Z,21.80
2022-11-12T01:09:17.254Z,24.90
2022-11-12T01:12:05.176Z,26.60
2022-11-12T01:14:53.240Z,22.30
2022-11-12T01:17:41.217Z,21.30
2022-11-12T01:20:28.714Z,23.80
2022-11-12T01:23:26.911Z,25.60
2022-11-12T01:26:29.890Z,22.60
2022-11-12T01:29:20.869Z,21.90
2022-11-12T01:32:08.989Z,20.40
2022-11-12T01:34:56.523Z,24.20
2022-11-12T01:37:48.499Z,27.10
2022-11-12T01:40:36.723Z,23.60
2022-11-12T01:43:25.497Z,21.30
2022-11-12T01:46:28.190Z,19.50
2022-11-12T01:49:29.000Z,24.30
2022-11-12T01:52:40.892Z,23.70
2022-11-12T01:58:25.196Z,30.40
2022-11-12T02:01:13.457Z,31.70
2022-11-12T02:04:01.778Z,27.10
2022-11-12T02:06:53.766Z,30.00
2022-11-12T02:09:42.023Z,30.70
2022-11-12T02:12:49.073Z,28.70
2022-11-12T02:15:40.043Z,29.40
2022-11-12T02:18:28.240Z,32.80
2022-11-12T02:21:21.324Z,26.70
2022-11-12T02:24:34.845Z,30.10
2022-11-12T02:27:26.136Z,30.20
2022-11-12T02:30:19.660Z,34.40
2022-11-12T02:33:07.516Z,38.00
2022-11-12T02:35:58.597Z,35.70
2022-11-12T02:38:50.004Z,41.00
2022-11-12T02:41:37.706Z,37.30
2022-11-12T02:44:25.994Z,48.50
2022-11-12T02:47:16.818Z,47.60
2022-11-12T02:50:05.810Z,46.90
2022-11-12T02:52:55.026Z,44.90
2022-11-12T02:55:50.233Z,40.00
2022-11-12T02:58:40.566Z,47.60
2022-11-12T03:01:28.614Z,45.30
2022-11-12T03:04:19.486Z,46.60
2022-11-12T03:07:07.310Z,48.00
2022-11-12T03:09:57.554Z,44.00
2022-11-12T03:12:45.176Z,42.50
2022-11-12T03:15:36.932Z,47.70
2022-11-12T03:18:25.120Z,46.30
2022-11-12T03:21:13.329Z,46.50
2022-11-12T03:24:02.468Z,46.70
2022-11-12T03:26:50.462Z,47.90
2022-11-12T03:29:39.252Z,50.80
2022-11-12T03:32:27.141Z,46.30
2022-11-12T03:35:15.129Z,48.30
2022-11-12T03:38:04.135Z,46.50
2022-11-12T03:40:52.766Z,49.10
2022-11-12T03:43:40.524Z,42.70
2022-11-12T03:46:28.278Z,47.50
2022-11-12T03:49:15.773Z,48.00
2022-11-12T03:52:04.248Z,45.90
2022-11-12T03:54:52.348Z,45.10
2022-11-12T03:57:41.690Z,47.20
2022-11-12T04:00:30.379Z,45.80
2022-11-12T04:03:17.958Z,51.10
2022-11-12T04:06:25.441Z,46.30
2022-11-12T04:09:13.491Z,45.60
2022-11-12T04:12:23.214Z,46.60
2022-11-12T04:15:12.280Z,48.30
2022-11-12T04:18:18.614Z,46.50
2022-11-12T04:21:28.281Z,44.10
2022-11-12T04:24:45.593Z,47.90
2022-11-12T04:27:35.057Z,49.00
2022-11-12T04:30:25.145Z,43.90
2022-11-12T04:33:17.600Z,44.40
2022-11-12T04:38:54.636Z,48.40
2022-11-12T04:42:03.625Z,46.40
2022-11-12T04:45:01.163Z,45.10
2022-11-12T04:47:48.465Z,44.40
2022-11-12T04:50:38.199Z,44.50
2022-11-12T04:53:28.475Z,48.40
2022-11-12T04:56:17.564Z,45.40
2022-11-12T04:59:09.801Z,41.90
2022-11-12T05:01:59.038Z,47.60
2022-11-12T05:04:49.313Z,46.20
2022-11-12T05:07:41.622Z,39.20
2022-11-12T05:10:31.019Z,41.40
2022-11-12T05:13:18.774Z,40.60
2022-11-12T05:16:09.848Z,41.90
2022-11-12T05:18:57.511Z,39.60
2022-11-12T05:22:05.578Z,50.00
2022-11-12T05:24:53.897Z,48.80
2022-11-12T05:27:42.005Z,41.80
2022-11-12T05:30:30.157Z,45.60
2022-11-12T05:33:18.046Z,52.50
2022-11-12T05:36:06.258Z,51.50
2022-11-12T05:38:54.135Z,48.60
2022-11-12T05:42:06.199Z,54.00
2022-11-12T05:44:51.155Z,55.80
2022-11-12T05:47:38.437Z,55.70
2022-11-12T05:50:34.869Z,49.30
2022-11-12T05:53:27.950Z,50.20
2022-11-12T05:56:19.066Z,55.20
2022-11-12T05:59:09.986Z,60.10
2022-11-12T06:02:01.233Z,90.50
2022-11-12T06:04:49.106Z,79.60
2022-11-12T06:07:40.092Z,84.70
2022-11-12T06:10:32.226Z,58.80
2022-11-12T06:13:23.473Z,35.40
2022-11-12T06:16:11.325Z,38.50
2022-11-12T06:19:03.917Z,33.80
2022-11-12T06:21:53.969Z,35.30
2022-11-12T06:24:46.042Z,41.40
2022-11-12T06:27:35.254Z,48.10
2022-11-12T06:30:25.807Z,42.90
2022-11-12T06:33:14.063Z,185.70
2022-11-12T06:36:05.378Z,205.90
2022-11-12T06:38:54.236Z,124.10
2022-11-12T06:41:42.182Z,74.10
2022-11-12T06:44:30.109Z,48.60
2022-11-12T06:47:21.298Z,50.80
2022-11-12T06:50:30.637Z,47.80
2022-11-12T06:53:23.628Z,47.70
2022-11-12T06:56:12.212Z,56.40
2022-11-12T06:58:59.818Z,282.70
2022-11-12T07:01:47.718Z,266.30
2022-11-12T07:04:35.604Z,309.30
2022-11-12T07:07:22.854Z,172.20
2022-11-12T07:10:10.652Z,146.50
2022-11-12T07:12:58.947Z,180.50
2022-11-12T07:15:46.446Z,116.60
2022-11-12T07:18:35.641Z,115.90
2022-11-12T07:21:23.711Z,115.50
2022-11-12T07:24:11.589Z,156.40
2022-11-12T07:26:59.328Z,248.70
2022-11-12T07:29:48.404Z,132.80
2022-11-12T07:32:43.431Z,107.20
2022-11-12T07:35:37.092Z,86.00
2022-11-12T07:38:31.793Z,80.40
2022-11-12T07:41:25.207Z,79.40
2022-11-12T07:44:13.871Z,69.10
2022-11-12T07:47:02.031Z,65.30
2022-11-12T07:49:52.689Z,59.90
2022-11-12T07:52:40.614Z,56.70
2022-11-12T07:55:30.202Z,49.90
2022-11-12T07:58:18.224Z,46.40
2022-11-12T08:01:20.899Z,40.80
2022-11-12T08:04:12.104Z,37.90
2022-11-12T08:06:59.754Z,34.70
2022-11-12T08:09:47.533Z,42.60
2022-11-12T08:12:34.881Z,32.00
2022-11-12T08:15:22.734Z,28.10
2022-11-12T08:18:10.067Z,24.60
2022-11-12T08:21:03.886Z,24.80
2022-11-12T08:23:51.830Z,25.60
2022-11-12T08:26:39.954Z,20.30
2022-11-12T08:29:27.491Z,25.40
2022-11-12T08:32:15.947Z,18.60
2022-11-12T08:35:03.979Z,22.50
2022-11-12T08:37:51.599Z,17.70
2022-11-12T08:40:40.415Z,18.70
2022-11-12T08:43:27.989Z,20.70
2022-11-12T08:46:15.988Z,20.90
2022-11-12T08:49:04.305Z,24.10
2022-11-12T08:51:52.213Z,20.60
2022-11-12T08:54:39.952Z,23.50
2022-11-12T08:57:27.969Z,20.60
2022-11-12T09:00:17.236Z,41.70
2022-11-12T09:03:10.973Z,31.60
2022-11-12T09:06:08.482Z,33.70
2022-11-12T09:08:55.940Z,35.90
2022-11-12T09:11:44.009Z,29.50
2022-11-12T09:14:31.463Z,31.60
2022-11-12T09:17:19.051Z,27.70
2022-11-12T09:20:14.578Z,21.60
2022-11-12T09:23:12.838Z,19.10
2022-11-12T09:26:01.434Z,20.80
2022-11-12T09:28:54.852Z,20.80
2022-11-12T09:31:47.001Z,26.40
2022-11-12T09:34:53.215Z,25.30
2022-11-12T09:37:41.048Z,20.10
2022-11-12T09:41:02.964Z,21.00
2022-11-12T09:44:18.397Z,22.00
2022-11-12T09:47:23.727Z,30.70
2022-11-12T09:50:22.177Z,24.60
2022-11-12T09:53:29.466Z,22.70
2022-11-12T09:56:26.516Z,34.20
2022-11-12T09:59:19.291Z,30.40
2022-11-12T10:02:23.807Z,31.70
2022-11-12T10:05:35.682Z,34.80
2022-11-12T10:08:39.748Z,30.00
2022-11-12T10:12:04.225Z,32.20
2022-11-12T10:15:41.451Z,32.00
2022-11-12T10:18:46.864Z,34.20
2022-11-12T10:21:56.439Z,24.70
2022-11-12T10:24:45.443Z,26.30
2022-11-12T10:27:40.533Z,34.20
2022-11-12T10:30:28.166Z,27.40
2022-11-12T10:33:16.600Z,37.20
2022-11-12T10:36:35.714Z,26.50
2022-11-12T10:39:38.645Z,23.50
2022-11-12T10:42:26.351Z,28.10
2022-11-12T10:45:22.880Z,22.60
2022-11-12T10:48:29.157Z,24.30
2022-11-12T10:51:33.766Z,23.00
2022-11-12T10:54:28.264Z,24.80
2022-11-12T10:57:27.603Z,23.60
2022-11-12T11:00:19.153Z,22.30
2022-11-12T11:03:35.850Z,31.60
2022-11-12T11:06:27.514Z,24.70
2022-11-12T11:09:18.346Z,24.80
2022-11-12T11:12:29.632Z,28.10
2022-11-12T11:15:23.038Z,25.90
2022-11-12T11:18:13.218Z,26.30
2022-11-12T11:21:13.648Z,37.60
2022-11-12T11:24:35.407Z,23.20
2022-11-12T11:27:36.132Z,23.90
2022-11-12T11:30:23.905Z,24.50
2022-11-12T11:33:58.805Z,27.30
2022-11-12T11:37:07.671Z,27.30
2022-11-12T11:40:26.949Z,26.00
2022-11-12T11:43:36.905Z,27.20
2022-11-12T11:46:36.777Z,28.50
2022-11-12T11:50:20.287Z,27.10
2022-11-12T11:53:27.223Z,28.30
2022-11-12T11:56:30.752Z,25.40
2022-11-12T12:00:01.430Z,28.90
2022-11-12T12:03:19.417Z,43.00
2022-11-12T12:06:18.682Z,31.50
2022-11-12T12:09:55.729Z,31.20
2022-11-12T12:13:33.344Z,35.50
2022-11-12T12:16:48.262Z,36.50
2022-11-12T12:20:17.761Z,37.00
2022-11-12T12:23:38.086Z,37.70
2022-11-12T12:26:42.695Z,38.80
2022-11-12T12:30:07.040Z,36.00
2022-11-12T12:33:07.869Z,46.30
2022-11-12T12:36:01.639Z,39.50
2022-11-12T12:39:23.660Z,41.40
2022-11-12T12:42:22.820Z,38.60
2022-11-12T12:45:48.464Z,40.60
2022-11-12T12:48:42.071Z,38.40
2022-11-12T12:51:32.812Z,39.60
2022-11-12T12:54:35.708Z,38.40
2022-11-12T12:57:41.556Z,37.30
2022-11-12T13:00:47.277Z,38.50
2022-11-12T13:03:44.553Z,39.60
2022-11-12T13:06:40.341Z,44.30
2022-11-12T13:09:28.741Z,42.90
2022-11-12T13:12:17.870Z,46.80
2022-11-12T13:15:16.511Z,45.00
2022-11-12T13:18:14.364Z,44.80
2022-11-12T13:21:15.321Z,40.30
2022-11-12T13:24:07.311Z,35.10
2022-11-12T13:26:57.285Z,38.90
2022-11-12T13:29:47.309Z,37.60
2022-11-12T13:32:44.695Z,40.40
2022-11-12T13:35:34.979Z,40.30
2022-11-12T13:38:22.858Z,40.20
2022-11-12T13:41:43.269Z,39.00
2022-11-12T13:44:31.584Z,40.70
2022-11-12T13:47:24.557Z,44.50
2022-11-12T13:50:22.691Z,35.50
2022-11-12T13:53:16.931Z,38.70
2022-11-12T13:56:04.952Z,36.90
2022-11-12T13:58:52.772Z,37.80
2022-11-12T14:01:41.544Z,34.40
2022-11-12T14:04:28.982Z,33.50
2022-11-12T14:07:50.434Z,32.80
2022-11-12T14:11:10.415Z,36.60
2022-11-12T14:14:06.446Z,42.20
2022-11-12T14:17:21.817Z,36.40
2022-11-12T14:20:32.442Z,32.30
2022-11-12T14:23:25.134Z,32.90
2022-11-12T14:26:15.171Z,30.30
2022-11-12T14:29:04.459Z,29.40
2022-11-12T14:32:03.244Z,34.90
2022-11-12T14:34:53.001Z,30.80
2022-11-12T14:37:44.167Z,32.10
2022-11-12T14:40:59.597Z,29.90
2022-11-12T14:44:07.482Z,30.60
2022-11-12T14:49:50.068Z,35.40
2022-11-12T14:52:44.621Z,36.00
2022-11-12T14:55:39.946Z,37.90
2022-11-12T14:58:28.662Z,36.80
2022-11-12T15:02:08.785Z,39.60
2022-11-12T15:04:52.425Z,37.10
2022-11-12T15:08:03.261Z,38.30
2022-11-12T15:10:51.746Z,37.80
2022-11-12T15:13:42.617Z,41.10
2022-11-12T15:16:35.304Z,40.70
2022-11-12T15:22:22.714Z,45.30
2022-11-12T15:25:28.887Z,58.60
2022-11-12T15:28:25.445Z,42.30
2022-11-12T15:31:21.815Z,46.20
2022-11-12T15:34:40.134Z,48.30
2022-11-12T15:37:33.692Z,36.90
2022-11-12T15:40:22.327Z,38.20
2022-11-12T15:43:17.331Z,43.60
2022-11-12T15:46:05.345Z,43.90
2022-11-12T15:48:56.236Z,30.80
2022-11-12T15:51:44.111Z,34.70
2022-11-12T15:54:35.607Z,32.40
2022-11-12T15:57:31.805Z,37.50
2022-11-12T16:00:23.419Z,44.70
2022-11-12T16:03:18.107Z,40.50
2022-11-12T16:06:09.290Z,42.50
2022-11-12T16:08:57.161Z,46.00
2022-11-12T16:11:45.216Z,49.30
2022-11-12T16:14:33.400Z,45.60
2022-11-12T16:17:21.380Z,47.10
2022-11-12T16:20:17.839Z,46.30
2022-11-12T16:23:06.062Z,45.70
2022-11-12T16:25:54.416Z,52.90
2022-11-12T16:28:41.983Z,53.70
2022-11-12T16:31:30.165Z,59.90
2022-11-12T16:34:18.011Z,54.10
2022-11-12T16:37:06.546Z,52.00
2022-11-12T16:39:54.324Z,40.90
2022-11-12T16:42:45.920Z,37.70
2022-11-12T16:45:41.465Z,57.50
2022-11-12T16:48:29.745Z,50.40
2022-11-12T16:51:22.077Z,48.80
2022-11-12T16:54:10.851Z,50.50
2022-11-12T16:57:02.842Z,52.60
2022-11-12T16:59:53.914Z,55.40
2022-11-12T17:02:46.215Z,51.80
2022-11-12T17:05:51.329Z,53.00
2022-11-12T17:08:42.364Z,57.20
2022-11-12T17:11:32.838Z,59.10
2022-11-12T17:14:27.101Z,58.50
2022-11-12T17:17:19.681Z,54.80
2022-11-12T17:20:09.109Z,70.20
2022-11-12T17:22:58.773Z,67.30
2022-11-12T17:25:46.283Z,67.60
2022-11-12T17:28:34.491Z,68.20
2022-11-12T17:31:23.431Z,69.30
2022-11-12T17:34:10.869Z,69.10
2022-11-12T17:36:58.580Z,60.00
2022-11-12T17:39:46.034Z,60.00
2022-11-12T17:42:35.156Z,58.40
2022-11-12T17:45:25.415Z,71.00
2022-11-12T17:48:13.233Z,56.90
2022-11-12T17:51:14.706Z,48.20
2022-11-12T17:54:02.607Z,51.60
2022-11-12T17:56:50.550Z,53.50
2022-11-12T17:59:38.563Z,58.20
2022-11-12T18:02:29.369Z,51.30
2022-11-12T18:05:17.200Z,54.50
2022-11-12T18:08:05.210Z,109.70
2022-11-12T18:10:54.200Z,99.00
2022-11-12T18:13:44.945Z,111.60
2022-11-12T18:16:32.643Z,100.70
2022-11-12T18:19:20.098Z,130.80
2022-11-12T18:22:08.253Z,121.70
2022-11-12T18:24:55.576Z,117.80
2022-11-12T18:27:44.728Z,120.00
2022-11-12T18:30:34.355Z,98.10
2022-11-12T18:33:22.406Z,102.50
2022-11-12T18:36:19.692Z,106.10
2022-11-12T18:39:07.832Z,106.60
2022-11-12T18:41:57.018Z,112.70
2022-11-12T18:44:45.562Z,110.30
2022-11-12T18:47:33.493Z,126.60
2022-11-12T18:50:21.495Z,113.50
2022-11-12T18:53:09.196Z,124.70
2022-11-12T18:59:11.937Z,149.30
2022-11-12T19:02:02.873Z,117.50
2022-11-12T19:04:50.739Z,117.40
2022-11-12T19:07:39.849Z,110.70
2022-11-12T19:10:28.093Z,110.40
2022-11-12T19:13:37.725Z,113.90
2022-11-12T19:16:33.713Z,108.30
2022-11-12T19:19:21.929Z,113.80
2022-11-12T19:22:11.427Z,117.60
2022-11-12T19:25:04.266Z,113.50
2022-11-12T19:28:04.025Z,98.20
2022-11-12T19:30:54.628Z,110.00
2022-11-12T19:34:00.386Z,103.10
2022-11-12T19:37:00.635Z,110.60
2022-11-12T19:40:15.745Z,105.10
2022-11-12T19:43:08.200Z,105.40
2022-11-12T19:49:22.267Z,107.90
2022-11-12T19:52:20.637Z,112.90
2022-11-12T19:55:08.726Z,97.80
2022-11-12T19:58:00.174Z,107.50
2022-11-12T20:00:49.373Z,112.70
2022-11-12T20:03:40.727Z,112.70
2022-11-12T20:06:31.186Z,128.00
2022-11-12T20:09:41.210Z,97.80
2022-11-12T20:12:40.700Z,100.20
2022-11-12T20:18:26.031Z,100.60
2022-11-12T20:21:16.135Z,90.70
2022-11-12T20:24:04.438Z,90.70
2022-11-12T20:26:59.786Z,90.00
2022-11-12T20:29:47.729Z,89.20
2022-11-12T20:32:36.737Z,95.40
2022-11-12T20:35:24.371Z,88.90
2022-11-12T20:38:16.881Z,86.10
2022-11-12T20:41:09.188Z,79.80
2022-11-12T20:44:00.970Z,86.80
2022-11-12T20:47:37.858Z,83.40
2022-11-12T20:52:00.820Z,80.60
2022-11-12T20:54:57.477Z,83.00
2022-11-12T20:57:58.691Z,86.60
2022-11-12T21:00:49.463Z,79.50
2022-11-12T21:04:02.448Z,82.60
2022-11-12T21:07:05.591Z,79.40
2022-11-12T21:10:50.670Z,79.00
2022-11-12T21:14:18.501Z,78.80
2022-11-12T21:17:08.617Z,79.50
2022-11-12T21:19:56.799Z,76.50
2022-11-12T21:22:51.589Z,96.50
2022-11-12T21:25:41.929Z,85.40
2022-11-12T21:28:37.130Z,84.10
2022-11-12T21:31:37.560Z,82.10
2022-11-12T21:34:29.331Z,80.80
2022-11-12T21:37:25.996Z,79.30
2022-11-12T21:40:25.695Z,69.20
2022-11-12T21:43:23.503Z,73.60
2022-11-12T21:46:28.694Z,75.80
2022-11-12T21:49:28.839Z,77.70
2022-11-12T21:52:23.296Z,75.60
2022-11-12T21:55:11.386Z,86.70
2022-11-12T21:57:59.357Z,84.10
2022-11-12T22:00:50.293Z,87.80
2022-11-12T22:03:46.336Z,93.20
2022-11-12T22:06:39.948Z,95.50
2022-11-12T22:12:58.669Z,93.20
2022-11-12T22:15:55.451Z,96.20
2022-11-12T22:19:05.645Z,121.80
2022-11-12T22:22:01.993Z,105.80
2022-11-12T22:25:00.043Z,100.70
2022-11-12T22:27:51.816Z,97.90
2022-11-12T22:30:43.891Z,97.10
2022-11-12T22:33:33.186Z,94.50
2022-11-12T22:36:23.747Z,108.00
2022-11-12T22:39:20.757Z,105.10
2022-11-12T22:42:17.288Z,108.80
2022-11-12T22:45:12.296Z,102.60
2022-11-12T22:48:06.833Z,102.40
2022-11-12T22:51:09.166Z,107.30
2022-11-12T22:54:10.320Z,100.90
2022-11-12T23:00:04.425Z,98.10
2022-11-12T23:02:52.222Z,101.40
2022-11-12T23:05:42.576Z,82.70
2022-11-12T23:08:31.638Z,77.60
2022-11-12T23:11:27.414Z,82.10
2022-11-12T23:14:15.285Z,78.50
2022-11-12T23:17:03.251Z,75.00
2022-11-12T23:19:51.188Z,64.80
2022-11-12T23:22:39.023Z,67.90
2022-11-12T23:25:29.462Z,65.90
2022-11-12T23:28:18.300Z,65.10
2022-11-12T23:31:13.640Z,66.80
2022-11-12T23:34:01.546Z,66.80
2022-11-12T23:36:49.383Z,65.10
2022-11-12T23:39:39.920Z,64.50
2022-11-12T23:42:30.960Z,68.70
2022-11-12T23:45:19.263Z,63.80
2022-11-12T23:48:07.267Z,62.90
2022-11-12T23:51:13.209Z,65.90
2022-11-12T23:54:00.893Z,60.40
2022-11-12T23:56:51.778Z,63.90
2022-11-12T23:59:40.095Z,63.20
